Time;durP1;ratioP1;P1;durP2;ratioP2;P2;SDS_P1;SDS_P2;PMS_P1;PMS_P2;Temp;Humidity;BMP_temperature;BMP_pressure;BME280_temperature;BME280_humidity;BME280_pressure;Samples;Min_cycle;Max_cycle;Signal;HPM_P1;HPM_P2
2022/03/14 00:00:49;;;;;;;83.53;49.17;;;1.10;74.60;;;;;;5003410;28;20235;-87
2022/03/14 00:03:15;;;;;;;87.73;47.40;;;1.10;75.20;;;;;;5021729;28;20204;-87
2022/03/14 00:05:42;;;;;;;103.80;54.73;;;1.10;75.30;;;;;;4997803;28;20187;-86
2022/03/14 00:08:08;;;;;;;98.80;53.95;;;1.00;74.80;;;;;;5013444;28;20469;-87
2022/03/14 00:10:34;;;;;;;112.80;55.57;;;1.10;75.10;;;;;;4994213;28;20182;-87
2022/03/14 00:13:01;;;;;;;109.50;55.88;;;1.10;75.20;;;;;;4994957;28;20258;-86
2022/03/14 00:15:32;;;;;;;119.80;60.50;;;1.10;75.60;;;;;;4994965;28;20601;-94
2022/03/14 00:18:01;;;;;;;102.55;59.08;;;1.00;74.80;;;;;;4993722;28;20203;-86
2022/03/14 00:20:27;;;;;;;107.40;58.00;;;1.00;74.60;;;;;;4993973;28;20180;-94
2022/03/14 00:22:53;;;;;;;107.25;53.45;;;1.00;75.00;;;;;;4995359;28;20230;-94
2022/03/14 00:25:19;;;;;;;101.03;53.40;;;1.00;75.20;;;;;;4994553;28;20180;-86
2022/03/14 00:27:45;;;;;;;91.88;52.55;;;0.90;75.30;;;;;;4995648;28;20609;-87
2022/03/14 00:30:12;;;;;;;111.97;56.20;;;0.90;75.30;;;;;;4994660;28;20184;-87
2022/03/14 00:32:41;;;;;;;119.07;58.13;;;0.90;75.30;;;;;;4995105;28;20203;-93
2022/03/14 00:35:08;;;;;;;101.13;55.55;;;0.90;75.30;;;;;;5011060;28;20219;-87
2022/03/14 00:37:35;;;;;;;115.10;60.10;;;0.90;75.60;;;;;;4995202;28;20211;-93
2022/03/14 00:40:03;;;;;;;129.10;60.13;;;0.90;75.90;;;;;;4997084;28;20191;-94
2022/03/14 00:42:28;;;;;;;100.97;55.63;;;0.80;75.70;;;;;;4994235;28;20200;-94
2022/03/14 00:44:54;;;;;;;109.53;59.20;;;0.80;75.70;;;;;;4995631;28;20272;-87
2022/03/14 00:47:21;;;;;;;104.90;59.22;;;0.80;76.10;;;;;;4994447;28;20200;-94
2022/03/14 00:49:47;;;;;;;116.97;61.42;;;0.80;76.20;;;;;;4995107;28;20271;-87
2022/03/14 00:52:16;;;;;;;97.57;53.65;;;0.70;76.20;;;;;;4996355;28;20196;-94
2022/03/14 00:54:42;;;;;;;97.43;52.25;;;0.70;76.60;;;;;;4994817;28;20219;-88
2022/03/14 00:57:08;;;;;;;94.22;50.63;;;0.70;76.10;;;;;;4995198;28;20207;-95
2022/03/14 00:59:34;;;;;;;113.40;54.60;;;0.70;76.40;;;;;;4997333;28;20552;-86
2022/03/14 01:02:00;;;;;;;96.83;51.97;;;0.60;76.40;;;;;;5000423;28;20204;-94
2022/03/14 01:04:26;;;;;;;91.35;50.75;;;0.60;76.20;;;;;;4995704;28;20423;-93
2022/03/14 01:06:51;;;;;;;104.53;54.53;;;0.50;76.30;;;;;;4996951;28;20180;-87
2022/03/14 01:09:17;;;;;;;110.20;53.57;;;0.50;76.90;;;;;;4996919;28;20452;-87
2022/03/14 01:11:43;;;;;;;94.70;52.43;;;0.50;76.80;;;;;;4998271;28;20200;-87
2022/03/14 01:14:10;;;;;;;108.88;52.13;;;0.50;77.00;;;;;;5000135;28;20247;-93
2022/03/14 01:16:36;;;;;;;99.50;51.03;;;0.50;76.60;;;;;;4998446;28;20199;-94
2022/03/14 01:19:02;;;;;;;98.72;52.92;;;0.40;76.40;;;;;;4996733;28;20277;-94
2022/03/14 01:21:30;;;;;;;96.72;52.10;;;0.40;76.70;;;;;;4996595;28;20176;-93
2022/03/14 01:23:57;;;;;;;108.78;55.42;;;0.40;76.50;;;;;;4996951;28;20634;-87
2022/03/14 01:26:22;;;;;;;101.70;51.95;;;0.40;76.70;;;;;;4996756;28;20187;-87
2022/03/14 01:28:48;;;;;;;112.70;55.50;;;0.40;77.10;;;;;;4997811;28;20206;-86
2022/03/14 01:31:14;;;;;;;109.97;54.97;;;0.30;77.00;;;;;;4996916;28;20176;-86
2022/03/14 01:33:40;;;;;;;107.78;56.20;;;0.30;77.00;;;;;;4996426;28;20294;-94
2022/03/14 01:36:06;;;;;;;104.77;55.37;;;0.30;77.40;;;;;;4996228;28;20176;-89
2022/03/14 01:38:32;;;;;;;99.83;53.23;;;0.20;77.40;;;;;;4998446;28;20439;-86
2022/03/14 01:40:59;;;;;;;110.50;56.00;;;0.20;77.20;;;;;;5012962;28;20422;-91
2022/03/14 01:43:26;;;;;;;100.00;57.65;;;0.20;77.30;;;;;;4996729;28;20208;-87
2022/03/14 01:46:00;;;;;;;109.82;57.83;;;0.10;77.20;;;;;;4997356;28;20672;-93
2022/03/14 01:48:26;;;;;;;104.03;55.72;;;0.10;77.70;;;;;;4999451;28;20206;-94
2022/03/14 01:50:52;;;;;;;103.88;55.55;;;0.10;78.60;;;;;;4999908;28;20195;-87
2022/03/14 01:53:19;;;;;;;106.95;58.05;;;0.10;78.20;;;;;;4997527;28;20632;-87
2022/03/14 01:55:48;;;;;;;116.13;58.85;;;0.10;78.10;;;;;;5016322;28;20653;-93
2022/03/14 01:58:16;;;;;;;113.13;56.97;;;0.10;78.10;;;;;;5002341;28;20218;-93
2022/03/14 02:00:42;;;;;;;104.05;57.53;;;0.00;77.80;;;;;;5015069;28;20176;-86
2022/03/14 02:03:08;;;;;;;107.43;54.60;;;0.00;78.10;;;;;;4998440;28;20206;-87
2022/03/14 02:05:39;;;;;;;115.90;57.80;;;0.00;78.10;;;;;;4995901;28;20179;-87
2022/03/14 02:08:05;;;;;;;90.32;55.00;;;0.00;78.40;;;;;;4995651;28;20250;-94
2022/03/14 02:10:31;;;;;;;102.40;54.28;;;-0.10;78.20;;;;;;4996072;28;20184;-86
2022/03/14 02:12:57;;;;;;;93.17;54.23;;;-0.20;78.60;;;;;;4996159;28;20203;-92
2022/03/14 02:15:23;;;;;;;108.40;57.95;;;-0.20;78.50;;;;;;4995814;28;20190;-92
2022/03/14 02:17:48;;;;;;;95.70;54.07;;;-0.20;78.50;;;;;;4997731;28;20271;-87
2022/03/14 02:20:14;;;;;;;99.47;53.03;;;-0.20;78.70;;;;;;4996294;28;20180;-92
2022/03/14 02:22:40;;;;;;;108.47;54.30;;;-0.20;78.70;;;;;;5012606;28;20208;-86
2022/03/14 02:25:10;;;;;;;89.90;52.87;;;-0.30;78.80;;;;;;4996625;28;20195;-94
2022/03/14 02:27:37;;;;;;;96.82;51.90;;;-0.40;79.30;;;;;;5012390;28;20412;-87
2022/03/14 02:30:04;;;;;;;86.47;52.60;;;-0.40;79.30;;;;;;4996303;28;20180;-86
2022/03/14 02:32:29;;;;;;;96.35;53.20;;;-0.40;79.20;;;;;;5000305;28;20641;-86
2022/03/14 02:34:55;;;;;;;95.37;49.13;;;-0.40;79.20;;;;;;4999017;28;20216;-93
2022/03/14 02:37:21;;;;;;;97.00;51.30;;;-0.40;80.10;;;;;;5013423;28;20208;-89
2022/03/14 02:39:47;;;;;;;79.50;46.53;;;-0.50;79.60;;;;;;4996017;28;20229;-85
2022/03/14 02:42:13;;;;;;;79.57;46.87;;;-0.50;79.70;;;;;;5001937;28;20183;-88
2022/03/14 02:44:41;;;;;;;83.67;47.37;;;-0.50;79.80;;;;;;5009327;28;20423;-87
2022/03/14 02:47:09;;;;;;;88.97;46.05;;;-0.50;80.10;;;;;;5005207;28;20424;-93
2022/03/14 02:49:35;;;;;;;96.93;52.20;;;-0.50;80.10;;;;;;4998469;28;20203;-86
2022/03/14 02:52:01;;;;;;;93.93;52.10;;;-0.60;79.80;;;;;;4996762;28;20192;-86
2022/03/14 02:54:27;;;;;;;95.43;50.50;;;-0.60;79.80;;;;;;4996090;28;20223;-87
2022/03/14 02:56:52;;;;;;;96.28;50.58;;;-0.70;79.90;;;;;;4997872;28;20453;-87
2022/03/14 02:59:19;;;;;;;86.63;46.33;;;-0.70;80.20;;;;;;4995783;28;20186;-87
2022/03/14 03:01:45;;;;;;;84.65;46.75;;;-0.60;80.00;;;;;;4996622;28;20176;-87
2022/03/14 03:04:11;;;;;;;90.50;49.35;;;-0.60;80.90;;;;;;4995265;28;20187;-93
2022/03/14 03:06:37;;;;;;;83.57;47.70;;;-0.70;80.20;;;;;;4995072;28;20183;-87
2022/03/14 03:09:03;;;;;;;87.23;49.40;;;-0.70;80.40;;;;;;4995135;28;20240;-87
2022/03/14 03:11:33;;;;;;;91.65;47.38;;;-0.80;80.10;;;;;;4997228;28;20250;-92
2022/03/14 03:14:00;;;;;;;77.72;44.58;;;-0.80;80.30;;;;;;4996656;28;20215;-87
2022/03/14 03:16:26;;;;;;;86.97;47.03;;;-0.90;80.20;;;;;;4996076;28;20199;-86
2022/03/14 03:18:53;;;;;;;79.75;46.63;;;-0.90;80.40;;;;;;4996135;28;20204;-87
2022/03/14 03:21:18;;;;;;;78.50;46.70;;;-0.80;80.70;;;;;;4996040;28;20668;-86
2022/03/14 03:23:44;;;;;;;83.80;45.60;;;-0.90;80.80;;;;;;4997086;28;20199;-94
2022/03/14 03:26:10;;;;;;;87.78;48.83;;;-0.90;80.80;;;;;;4995038;28;20204;-93
2022/03/14 03:28:36;;;;;;;87.93;49.10;;;-1.00;80.90;;;;;;4995866;28;20215;-87
2022/03/14 03:31:07;;;;;;;94.87;47.80;;;-1.00;81.90;;;;;;4995905;28;20445;-87
2022/03/14 03:33:34;;;;;;;93.25;50.53;;;-1.00;81.10;;;;;;4997740;28;20886;-87
2022/03/14 03:36:00;;;;;;;95.18;50.22;;;-1.10;81.10;;;;;;4995618;28;20176;-85
2022/03/14 03:38:26;;;;;;;97.60;50.50;;;-1.10;81.40;;;;;;4995812;28;20211;-86
2022/03/14 03:40:52;;;;;;;102.70;51.75;;;-1.10;81.30;;;;;;5011926;28;20314;-94
2022/03/14 03:43:18;;;;;;;97.70;49.20;;;-1.10;81.70;;;;;;4996379;28;20649;-87
2022/03/14 03:45:44;;;;;;;91.17;48.97;;;-1.10;81.60;;;;;;5013485;28;20203;-87
2022/03/14 03:48:09;;;;;;;99.23;51.50;;;-1.10;81.50;;;;;;4999199;28;20403;-86
2022/03/14 03:50:35;;;;;;;93.27;52.27;;;-1.10;81.40;;;;;;4995910;28;20395;-92
2022/03/14 03:53:01;;;;;;;95.30;54.87;;;-1.20;81.40;;;;;;5005046;28;20208;-94
2022/03/14 03:55:26;;;;;;;104.47;55.40;;;-1.20;81.60;;;;;;4994188;28;20202;-92
2022/03/14 03:57:53;;;;;;;93.03;51.67;;;-1.20;82.20;;;;;;4994097;28;20192;-94
2022/03/14 04:00:20;;;;;;;93.82;52.67;;;-1.20;81.80;;;;;;4995200;28;20417;-87
2022/03/14 04:02:46;;;;;;;90.22;52.95;;;-1.20;81.90;;;;;;4995737;28;20196;-94
2022/03/14 04:05:16;;;;;;;93.30;53.50;;;-1.20;82.00;;;;;;4993757;28;20187;-87
2022/03/14 04:07:43;;;;;;;98.00;53.58;;;-1.20;82.50;;;;;;4994948;28;20595;-87
2022/03/14 04:10:12;;;;;;;85.85;47.55;;;-1.30;82.50;;;;;;5010545;28;20184;-93
2022/03/14 04:12:40;;;;;;;89.78;49.90;;;-1.30;82.10;;;;;;4994236;28;20223;-93
2022/03/14 04:15:07;;;;;;;103.45;53.78;;;-1.30;82.00;;;;;;4995642;28;20555;-93
2022/03/14 04:17:35;;;;;;;84.65;50.63;;;-1.30;82.10;;;;;;4996216;28;20188;-93
2022/03/14 04:20:03;;;;;;;96.25;53.25;;;-1.30;82.70;;;;;;4994305;28;20638;-87
2022/03/14 04:22:29;;;;;;;106.53;55.47;;;-1.40;82.40;;;;;;4993968;28;20253;-87
2022/03/14 04:24:55;;;;;;;105.10;52.35;;;-1.40;82.50;;;;;;4994116;28;20191;-94
2022/03/14 04:27:21;;;;;;;100.20;55.40;;;-1.40;82.50;;;;;;4995386;28;20196;-87
2022/03/14 04:29:46;;;;;;;103.17;56.77;;;-1.40;82.80;;;;;;5012696;28;20196;-86
2022/03/14 04:32:12;;;;;;;105.37;52.00;;;-1.50;82.90;;;;;;5010136;28;20235;-93
2022/03/14 04:34:38;;;;;;;99.40;52.90;;;-1.50;82.60;;;;;;4995399;28;20227;-93
2022/03/14 04:37:05;;;;;;;118.57;56.40;;;-1.60;83.30;;;;;;4995393;28;20188;-87
2022/03/14 04:39:31;;;;;;;122.97;64.28;;;-1.60;83.10;;;;;;4996608;28;20557;-86
2022/03/14 04:41:57;;;;;;;151.63;70.70;;;-1.60;83.50;;;;;;4999786;28;20200;-86
2022/03/14 04:44:23;;;;;;;166.80;71.00;;;-1.60;83.30;;;;;;4999014;28;20423;-87
2022/03/14 04:46:49;;;;;;;172.90;76.10;;;-1.60;83.30;;;;;;4999008;28;20484;-93
2022/03/14 04:49:14;;;;;;;154.63;67.50;;;-1.60;83.30;;;;;;4999861;28;20516;-86
2022/03/14 04:51:41;;;;;;;135.80;65.30;;;-1.70;83.70;;;;;;5000443;28;20182;-86
2022/03/14 04:54:06;;;;;;;118.75;60.85;;;-1.70;83.90;;;;;;5000775;28;20228;-93
2022/03/14 04:56:33;;;;;;;114.20;57.83;;;-1.70;84.00;;;;;;5005763;28;20180;-87
2022/03/14 04:58:59;;;;;;;102.25;58.05;;;-1.70;83.80;;;;;;4997471;28;20428;-87
2022/03/14 05:01:25;;;;;;;109.27;54.60;;;-1.70;83.80;;;;;;4997034;28;20183;-87
2022/03/14 05:03:52;;;;;;;129.82;62.20;;;-1.70;83.90;;;;;;4997054;28;20424;-86
2022/03/14 05:06:21;;;;;;;124.72;61.92;;;-1.80;83.70;;;;;;4997275;28;20200;-92
2022/03/14 05:08:47;;;;;;;115.05;62.55;;;-1.80;83.30;;;;;;5000381;28;20236;-92
2022/03/14 05:11:14;;;;;;;124.35;63.13;;;-1.80;83.80;;;;;;4998409;28;20172;-85
2022/03/14 05:13:41;;;;;;;95.63;48.40;;;-1.80;83.80;;;;;;4996939;28;20314;-93
2022/03/14 05:16:07;;;;;;;90.68;48.05;;;-1.80;84.00;;;;;;4996764;28;20198;-86
2022/03/14 05:18:37;;;;;;;98.82;54.10;;;-1.80;84.20;;;;;;5000145;28;20633;-93
2022/03/14 05:21:08;;;;;;;99.15;52.50;;;-1.80;84.50;;;;;;4999517;28;20172;-94
2022/03/14 05:23:34;;;;;;;85.82;46.63;;;-1.70;84.50;;;;;;4998969;28;20215;-87
2022/03/14 05:26:00;;;;;;;98.43;49.97;;;-1.70;84.60;;;;;;4999156;28;20208;-87
2022/03/14 05:28:26;;;;;;;86.43;49.60;;;-1.70;84.50;;;;;;4998495;28;20416;-87
2022/03/14 05:30:53;;;;;;;99.03;51.33;;;-1.60;84.90;;;;;;4999097;28;20200;-86
2022/03/14 05:33:18;;;;;;;93.07;47.80;;;-1.60;84.40;;;;;;4997999;28;20237;-93
2022/03/14 05:35:44;;;;;;;67.90;40.57;;;-1.50;84.60;;;;;;4998903;28;20267;-92
2022/03/14 05:38:10;;;;;;;64.43;36.80;;;-1.50;83.70;;;;;;4999197;28;20218;-86
2022/03/14 05:40:35;;;;;;;72.93;37.23;;;-1.40;83.30;;;;;;5019338;28;20226;-87
2022/03/14 05:43:11;;;;;;;57.27;37.00;;;-1.30;82.60;;;;;;5002029;28;20425;-87
2022/03/14 05:45:37;;;;;;;62.30;35.03;;;-1.20;82.70;;;;;;4999866;28;20241;-87
2022/03/14 05:48:04;;;;;;;61.50;37.33;;;-1.10;82.20;;;;;;4999706;28;20203;-87
2022/03/14 05:50:30;;;;;;;54.15;31.67;;;-1.10;81.80;;;;;;5008979;28;20172;-88
2022/03/14 05:52:56;;;;;;;53.13;29.50;;;-1.00;81.60;;;;;;4999048;28;20210;-94
2022/03/14 05:55:23;;;;;;;45.80;29.05;;;-0.90;81.30;;;;;;4998448;28;20207;-86
2022/03/14 05:57:49;;;;;;;51.33;28.50;;;-0.80;81.00;;;;;;5012065;28;20198;-90
2022/03/14 06:00:23;;;;;;;49.85;30.98;;;-0.70;80.90;;;;;;4995825;28;20230;-86
2022/03/14 06:02:49;;;;;;;45.80;29.85;;;-0.70;80.70;;;;;;4995887;28;20208;-87
2022/03/14 06:05:17;;;;;;;49.55;31.55;;;-0.60;80.80;;;;;;4998164;28;20660;-94
2022/03/14 06:07:43;;;;;;;54.45;29.50;;;-0.50;81.00;;;;;;4997184;28;20673;-86
2022/03/14 06:10:09;;;;;;;50.00;29.40;;;-0.40;81.40;;;;;;4998563;28;20218;-86
2022/03/14 06:12:35;;;;;;;47.35;28.30;;;-0.30;81.60;;;;;;4996440;28;20278;-87
2022/03/14 06:15:03;;;;;;;50.97;29.70;;;-0.20;82.00;;;;;;4996983;28;20216;-88
2022/03/14 06:17:29;;;;;;;53.33;30.77;;;-0.20;82.20;;;;;;4995694;28;20751;-93
2022/03/14 06:19:54;;;;;;;53.93;30.50;;;-0.10;82.70;;;;;;4996396;28;20184;-94
2022/03/14 06:22:23;;;;;;;55.17;33.50;;;0.00;83.00;;;;;;4997829;28;20408;-95
2022/03/14 06:24:51;;;;;;;48.42;30.48;;;0.10;83.60;;;;;;4997960;28;20408;-95
2022/03/14 06:27:22;;;;;;;54.97;31.35;;;0.20;84.10;;;;;;4997915;28;20693;-88
2022/03/14 06:29:48;;;;;;;52.15;30.20;;;0.40;84.70;;;;;;4996748;28;20227;-87
2022/03/14 06:32:15;;;;;;;50.53;30.20;;;0.40;84.50;;;;;;4998062;28;20188;-94
2022/03/14 06:34:42;;;;;;;43.63;26.90;;;0.60;84.40;;;;;;5012929;28;20228;-87
2022/03/14 06:37:09;;;;;;;40.88;27.35;;;0.70;83.80;;;;;;4995945;28;20200;-87
2022/03/14 06:39:36;;;;;;;48.67;28.52;;;0.80;83.50;;;;;;5002193;28;20191;-88
2022/03/14 06:42:05;;;;;;;47.90;27.58;;;1.00;83.10;;;;;;5003817;28;20191;-88
2022/03/14 06:44:31;;;;;;;39.55;26.48;;;1.10;82.60;;;;;;5013796;28;20524;-87
2022/03/14 06:46:56;;;;;;;40.00;25.23;;;1.20;82.00;;;;;;5001415;28;20300;-88
2022/03/14 06:49:23;;;;;;;41.33;26.90;;;1.40;81.60;;;;;;5004089;28;20436;-90
2022/03/14 06:51:49;;;;;;;48.30;26.02;;;1.60;81.10;;;;;;5005628;28;20229;-94
2022/03/14 06:54:15;;;;;;;38.88;25.77;;;1.70;81.00;;;;;;5007256;28;20206;-87
2022/03/14 06:56:43;;;;;;;37.93;24.53;;;1.90;80.60;;;;;;5013821;28;20251;-88
2022/03/14 06:59:09;;;;;;;36.67;26.23;;;2.10;80.30;;;;;;5007916;28;20172;-95
2022/03/14 07:01:35;;;;;;;36.00;23.20;;;2.20;79.70;;;;;;4995968;28;20183;-94
2022/03/14 07:04:02;;;;;;;39.10;25.43;;;2.40;79.70;;;;;;4993541;28;20658;-87
2022/03/14 07:06:28;;;;;;;35.17;24.77;;;2.50;79.00;;;;;;4994774;28;20441;-88
2022/03/14 07:08:54;;;;;;;35.70;25.10;;;2.70;78.50;;;;;;4993845;28;20235;-94
2022/03/14 07:11:20;;;;;;;39.20;24.90;;;2.80;78.50;;;;;;4999564;28;20233;-95
2022/03/14 07:13:46;;;;;;;39.37;26.43;;;3.00;78.40;;;;;;4995846;28;20212;-94
2022/03/14 07:16:12;;;;;;;71.72;43.55;;;3.10;78.30;;;;;;4996087;28;20422;-94
2022/03/14 07:18:37;;;;;;;41.93;26.67;;;3.30;78.20;;;;;;4994627;28;20208;-95
2022/03/14 07:21:03;;;;;;;76.07;60.80;;;3.40;77.90;;;;;;4994871;28;20238;-94
2022/03/14 07:23:29;;;;;;;38.57;24.17;;;3.50;77.70;;;;;;4994057;28;21061;-88
2022/03/14 07:25:55;;;;;;;33.20;21.13;;;3.70;77.70;;;;;;4994515;28;20449;-95
2022/03/14 07:28:21;;;;;;;28.33;20.60;;;3.90;76.90;;;;;;4994182;28;20990;-87
2022/03/14 07:30:47;;;;;;;29.00;20.37;;;4.00;76.50;;;;;;4993905;28;20415;-87
2022/03/14 07:33:12;;;;;;;29.75;18.25;;;4.20;76.30;;;;;;4993990;28;20286;-88
2022/03/14 07:35:38;;;;;;;39.50;23.93;;;4.40;75.60;;;;;;4996712;28;20688;-87
2022/03/14 07:38:05;;;;;;;30.17;19.20;;;4.50;75.50;;;;;;5002842;28;20416;-95
2022/03/14 07:40:31;;;;;;;29.25;19.58;;;4.70;74.70;;;;;;4994633;28;20192;-87
2022/03/14 07:43:01;;;;;;;25.83;19.25;;;4.90;74.60;;;;;;4997684;28;20544;-87
2022/03/14 07:45:28;;;;;;;27.38;18.33;;;5.00;74.00;;;;;;4998366;28;20180;-94
2022/03/14 07:47:55;;;;;;;26.60;19.75;;;5.20;73.70;;;;;;5000205;28;20195;-94
2022/03/14 07:50:21;;;;;;;32.78;21.20;;;5.30;74.10;;;;;;4996037;28;20262;-92
2022/03/14 07:52:47;;;;;;;33.45;19.55;;;5.40;74.20;;;;;;4999567;28;20269;-88
2022/03/14 07:55:14;;;;;;;28.23;18.53;;;5.60;74.30;;;;;;5002754;28;20215;-93
2022/03/14 07:57:41;;;;;;;26.98;20.00;;;5.70;73.30;;;;;;5003888;28;20526;-88
2022/03/14 08:00:13;;;;;;;31.15;21.92;;;5.90;72.80;;;;;;4995037;28;20199;-94
2022/03/14 08:02:39;;;;;;;29.70;20.67;;;6.00;72.50;;;;;;4994332;28;20208;-87
2022/03/14 08:05:09;;;;;;;25.77;17.45;;;6.20;71.90;;;;;;4993745;28;20552;-94
2022/03/14 08:07:36;;;;;;;21.90;17.30;;;6.30;72.60;;;;;;4995436;28;20211;-88
2022/03/14 08:10:09;;;;;;;22.63;15.68;;;6.40;71.80;;;;;;4996424;28;20161;-93
2022/03/14 08:12:49;;;;;;;17.95;14.25;;;6.60;71.50;;;;;;5014462;28;20214;-86
2022/03/14 08:15:21;;;;;;;25.27;15.50;;;6.80;71.30;;;;;;5014884;28;20227;-95
2022/03/14 08:17:47;;;;;;;25.55;16.13;;;7.00;71.60;;;;;;4998114;28;20210;-87
2022/03/14 08:20:13;;;;;;;20.83;16.48;;;7.30;71.40;;;;;;4998008;28;20215;-87
2022/03/14 08:22:39;;;;;;;20.80;15.30;;;7.80;69.60;;;;;;4998772;28;20265;-94
2022/03/14 08:25:06;;;;;;;19.77;14.85;;;8.20;68.80;;;;;;5013207;28;20203;-95
2022/03/14 08:27:31;;;;;;;20.10;14.77;;;8.70;68.30;;;;;;5017508;28;20668;-94
2022/03/14 08:29:58;;;;;;;21.10;13.03;;;9.50;67.40;;;;;;5019577;28;20167;-95
2022/03/14 08:32:24;;;;;;;19.80;14.50;;;10.50;65.20;;;;;;5020730;28;20191;-95
2022/03/14 08:34:53;;;;;;;21.20;16.08;;;11.50;63.40;;;;;;5021539;28;20206;-88
2022/03/14 08:37:19;;;;;;;24.00;17.88;;;12.40;61.60;;;;;;5020186;28;20261;-95
2022/03/14 08:39:46;;;;;;;24.17;19.42;;;13.20;60.30;;;;;;5000744;28;20191;-88
2022/03/14 08:42:12;;;;;;;29.17;21.10;;;14.00;58.80;;;;;;5000188;28;20208;-94
2022/03/14 08:44:38;;;;;;;23.97;18.57;;;14.70;58.00;;;;;;5003799;28;20412;-88
2022/03/14 08:47:04;;;;;;;22.57;17.50;;;15.10;56.70;;;;;;4999858;28;20199;-95
2022/03/14 08:49:30;;;;;;;19.67;16.57;;;15.40;56.20;;;;;;4999315;28;20164;-87
2022/03/14 08:51:55;;;;;;;20.23;17.40;;;15.60;54.90;;;;;;4997014;28;20451;-88
2022/03/14 08:54:21;;;;;;;19.07;16.50;;;15.90;54.90;;;;;;4999401;28;20211;-88
2022/03/14 08:56:47;;;;;;;25.07;14.70;;;16.10;53.10;;;;;;5000844;28;20527;-87
2022/03/14 08:59:12;;;;;;;17.47;14.87;;;16.30;52.80;;;;;;5004900;28;20645;-88
2022/03/14 09:01:39;;;;;;;19.53;14.30;;;16.40;51.90;;;;;;5000595;28;20222;-95
2022/03/14 09:04:05;;;;;;;18.00;15.50;;;16.50;52.50;;;;;;4996788;28;20279;-88
2022/03/14 09:06:35;;;;;;;18.13;14.70;;;16.50;52.90;;;;;;4996637;28;20429;-88
2022/03/14 09:09:01;;;;;;;16.70;14.50;;;16.70;52.40;;;;;;5013225;28;21089;-88
2022/03/14 09:11:27;;;;;;;18.03;13.00;;;17.20;52.20;;;;;;5003625;28;20766;-95
2022/03/14 09:13:53;;;;;;;18.70;14.80;;;17.50;51.80;;;;;;4996993;28;20469;-95
2022/03/14 09:16:19;;;;;;;15.63;12.30;;;17.80;51.40;;;;;;4996932;28;20432;-88
2022/03/14 09:18:46;;;;;;;16.07;12.53;;;17.80;50.10;;;;;;5013167;28;20617;-88
2022/03/14 09:21:14;;;;;;;16.93;11.60;;;17.70;50.50;;;;;;4996881;28;20428;-94
2022/03/14 09:23:42;;;;;;;18.53;13.87;;;17.60;50.60;;;;;;4997126;28;20434;-95
2022/03/14 09:26:09;;;;;;;14.73;11.90;;;17.30;50.30;;;;;;4998323;28;20449;-94
2022/03/14 09:28:36;;;;;;;14.20;12.73;;;17.10;50.20;;;;;;4998240;28;20438;-95
2022/03/14 09:31:03;;;;;;;14.03;11.80;;;17.00;50.60;;;;;;5013116;28;20449;-89
2022/03/14 09:33:29;;;;;;;21.07;15.37;;;16.80;50.00;;;;;;4996510;28;20480;-88
2022/03/14 09:35:54;;;;;;;29.90;20.73;;;16.70;50.50;;;;;;4996442;28;20524;-95
2022/03/14 09:38:20;;;;;;;17.60;13.87;;;16.40;50.90;;;;;;5012726;28;20195;-88
2022/03/14 09:40:48;;;;;;;13.13;11.80;;;16.30;51.00;;;;;;4998324;28;20187;-94
2022/03/14 09:43:18;;;;;;;12.97;11.33;;;16.10;50.90;;;;;;5006988;28;20461;-92
2022/03/14 09:45:48;;;;;;;12.80;11.47;;;16.30;50.40;;;;;;4997981;28;20441;-88
2022/03/14 09:48:15;;;;;;;13.53;10.10;;;16.40;50.50;;;;;;4994657;28;20500;-95
2022/03/14 09:50:44;;;;;;;13.07;11.33;;;16.60;50.50;;;;;;4996441;28;20445;-95
2022/03/14 09:53:12;;;;;;;14.77;10.30;;;16.50;49.60;;;;;;4996235;28;20441;-94
2022/03/14 09:55:42;;;;;;;14.13;11.00;;;16.40;50.50;;;;;;4997981;28;20461;-88
2022/03/14 09:58:16;;;;;;;14.97;11.13;;;16.30;49.90;;;;;;4997122;28;20454;-94
2022/03/14 10:00:42;;;;;;;15.80;11.50;;;16.20;50.00;;;;;;4996859;28;20934;-87
2022/03/14 10:03:09;;;;;;;14.50;10.30;;;16.20;50.20;;;;;;4996190;28;20425;-95
2022/03/14 10:05:35;;;;;;;13.30;10.87;;;16.30;50.30;;;;;;4996570;28;20813;-88
2022/03/14 10:08:01;;;;;;;13.20;10.37;;;16.50;50.50;;;;;;4996040;28;20477;-88
2022/03/14 10:10:27;;;;;;;11.33;10.03;;;16.80;49.80;;;;;;5012884;28;20438;-88
2022/03/14 10:12:53;;;;;;;13.17;10.70;;;16.90;48.60;;;;;;4995683;28;20439;-95
2022/03/14 10:15:25;;;;;;;14.90;12.33;;;16.70;48.90;;;;;;5017066;28;20477;-88
2022/03/14 10:17:52;;;;;;;15.20;11.77;;;16.40;50.00;;;;;;4996255;28;20437;-89
2022/03/14 10:20:18;;;;;;;14.47;9.70;;;16.30;50.60;;;;;;4996866;28;20432;-88
2022/03/14 10:22:45;;;;;;;12.87;9.20;;;16.30;50.60;;;;;;4998218;28;20418;-95
2022/03/14 10:25:16;;;;;;;12.43;10.13;;;16.30;50.60;;;;;;5013263;28;20479;-88
2022/03/14 10:27:45;;;;;;;13.80;9.77;;;16.30;50.40;;;;;;4997658;28;20442;-87
2022/03/14 10:30:21;;;;;;;14.53;9.90;;;16.10;50.00;;;;;;5005665;28;20433;-88
2022/03/14 10:32:48;;;;;;;14.13;9.60;;;15.80;50.50;;;;;;5014476;28;20460;-88
2022/03/14 10:35:20;;;;;;;14.20;9.80;;;15.40;50.50;;;;;;5011468;28;20481;-88
2022/03/14 10:37:58;;;;;;;12.80;9.50;;;15.20;51.10;;;;;;5011126;28;20584;-90
2022/03/14 10:40:32;;;;;;;10.10;9.07;;;15.00;51.30;;;;;;4995149;28;20472;-88
2022/03/14 10:42:58;;;;;;;10.40;9.10;;;14.90;50.50;;;;;;4995600;28;20926;-95
2022/03/14 10:45:24;;;;;;;11.63;8.67;;;14.70;51.10;;;;;;4996698;28;20556;-89
2022/03/14 10:47:57;;;;;;;13.80;8.57;;;14.60;51.20;;;;;;4995996;28;20425;-95
2022/03/14 10:50:30;;;;;;;14.57;10.30;;;14.50;52.00;;;;;;4995463;28;20454;-95
2022/03/14 10:53:20;;;;;;;9.50;7.93;;;14.40;52.30;;;;;;4996934;28;20461;-94
2022/03/14 10:55:48;;;;;;;14.37;10.37;;;14.40;51.90;;;;;;4995677;28;20544;-89
2022/03/14 10:58:19;;;;;;;14.63;10.10;;;14.30;52.30;;;;;;4995771;28;20495;-89
2022/03/14 11:00:55;;;;;;;21.07;16.60;;;14.20;52.30;;;;;;4997040;28;20433;-88
2022/03/14 11:03:36;;;;;;;11.87;8.20;;;14.10;52.60;;;;;;4996018;28;20448;-88
2022/03/14 11:06:05;;;;;;;13.50;9.00;;;14.00;52.30;;;;;;4996473;28;20429;-95
2022/03/14 11:08:45;;;;;;;11.80;8.90;;;14.00;52.80;;;;;;4997080;28;20465;-95
2022/03/14 11:11:16;;;;;;;14.60;10.40;;;13.90;53.10;;;;;;4997164;28;20433;-93
2022/03/14 11:13:44;;;;;;;11.83;9.23;;;13.80;53.60;;;;;;4997537;28;20815;-88
2022/03/14 11:16:22;;;;;;;11.20;8.73;;;13.70;54.00;;;;;;4998062;28;20430;-88
2022/03/14 11:18:49;;;;;;;10.13;8.70;;;13.70;53.50;;;;;;4997395;28;20437;-95
2022/03/14 11:21:18;;;;;;;12.07;8.57;;;13.80;53.70;;;;;;4996313;28;20429;-95
2022/03/14 11:23:46;;;;;;;15.30;9.70;;;13.90;53.60;;;;;;5000254;28;20485;-94
2022/03/14 11:26:13;;;;;;;11.63;9.47;;;14.00;53.70;;;;;;4997712;28;20428;-95
2022/03/14 11:28:41;;;;;;;10.30;8.97;;;14.10;54.30;;;;;;4995740;28;20417;-95
2022/03/14 11:31:07;;;;;;;12.23;8.40;;;14.20;54.20;;;;;;4996830;28;20492;-89
2022/03/14 11:33:35;;;;;;;11.60;9.00;;;14.20;54.00;;;;;;4994039;28;20438;-95
2022/03/14 11:36:03;;;;;;;10.53;8.70;;;14.40;54.40;;;;;;4994215;28;20495;-94
2022/03/14 11:38:30;;;;;;;13.13;8.40;;;14.50;53.60;;;;;;4993836;28;20484;-88
2022/03/14 11:41:00;;;;;;;12.03;7.20;;;14.60;53.10;;;;;;4994633;28;20426;-95
2022/03/14 11:43:27;;;;;;;9.53;6.80;;;14.50;53.10;;;;;;4996395;28;20417;-88
2022/03/14 11:45:53;;;;;;;9.33;7.83;;;14.60;53.00;;;;;;4995944;28;20453;-88
2022/03/14 11:48:21;;;;;;;9.03;7.43;;;14.50;52.80;;;;;;4995056;28;20444;-88
2022/03/14 11:50:58;;;;;;;10.27;7.17;;;14.50;53.30;;;;;;4995756;28;20784;-88
2022/03/14 11:53:26;;;;;;;9.27;7.73;;;14.60;53.10;;;;;;5004402;28;20435;-94
2022/03/14 11:55:57;;;;;;;9.83;7.90;;;14.60;53.00;;;;;;5002079;28;20429;-88
2022/03/14 11:58:36;;;;;;;9.97;7.57;;;14.70;53.20;;;;;;4998511;28;20472;-95
2022/03/14 12:01:20;;;;;;;9.20;7.60;;;14.60;53.10;;;;;;4996672;28;20433;-94
2022/03/14 12:03:52;;;;;;;12.40;7.80;;;14.60;53.00;;;;;;4996385;28;21052;-89
2022/03/14 12:06:46;;;;;;;9.00;7.40;;;14.60;53.60;;;;;;4998076;28;20441;-88
2022/03/14 12:09:24;;;;;;;7.43;6.60;;;14.60;52.60;;;;;;5002112;28;20468;-95
2022/03/14 12:11:51;;;;;;;10.77;7.30;;;14.60;52.60;;;;;;4996493;28;20437;-88
2022/03/14 12:14:39;;;;;;;7.13;5.40;;;14.50;53.10;;;;;;4999647;28;20457;-95
2022/03/14 12:17:14;;;;;;;9.00;5.53;;;14.50;53.10;;;;;;5003069;28;20465;-88
2022/03/14 12:19:47;;;;;;;9.67;6.37;;;14.50;53.00;;;;;;4994011;28;20543;-88
2022/03/14 12:22:35;;;;;;;7.50;5.87;;;14.60;53.50;;;;;;4993818;28;20970;-88
2022/03/14 12:25:05;;;;;;;7.83;6.53;;;14.60;53.00;;;;;;4994672;28;20433;-88
2022/03/14 12:27:39;;;;;;;8.43;6.57;;;14.70;52.40;;;;;;4995298;28;20425;-95
2022/03/14 12:30:15;;;;;;;7.30;5.60;;;14.60;52.20;;;;;;4995263;28;20444;-88
2022/03/14 12:32:49;;;;;;;7.47;5.77;;;14.70;52.70;;;;;;4995204;28;20572;-90